createdAt,value
2023-04-14T00:02:02.009Z,3.13
2023-04-14T00:04:29.808Z,3.40
2023-04-14T00:06:58.503Z,3.08
2023-04-14T00:09:26.722Z,3.13
2023-04-14T00:11:54.292Z,3.08
2023-04-14T00:14:21.844Z,2.85
2023-04-14T00:16:49.555Z,3.00
2023-04-14T00:19:17.215Z,2.47
2023-04-14T00:21:44.808Z,2.88
2023-04-14T00:24:12.345Z,2.70
2023-04-14T00:26:40.065Z,3.42
2023-04-14T00:29:07.645Z,3.47
2023-04-14T00:31:35.348Z,2.85
2023-04-14T00:34:02.994Z,2.70
2023-04-14T00:36:32.121Z,2.80
2023-04-14T00:39:00.595Z,3.00
2023-04-14T00:41:33.322Z,3.05
2023-04-14T00:44:02.824Z,3.80
2023-04-14T00:46:31.174Z,3.33
2023-04-14T00:48:59.173Z,3.15
2023-04-14T00:51:27.312Z,3.15
2023-04-14T00:53:56.314Z,3.35
2023-04-14T00:56:29.673Z,3.22
2023-04-14T00:58:57.403Z,3.13
2023-04-14T01:01:26.436Z,2.80
2023-04-14T01:03:54.190Z,2.92
2023-04-14T01:06:21.968Z,3.33
2023-04-14T01:08:50.529Z,3.35
2023-04-14T01:11:37.376Z,3.47
2023-04-14T01:14:11.662Z,3.20
2023-04-14T01:16:39.977Z,3.20
2023-04-14T01:19:19.347Z,3.15
2023-04-14T01:21:51.154Z,3.50
2023-04-14T01:24:40.840Z,3.65
2023-04-14T01:27:14.404Z,3.50
2023-04-14T01:29:57.332Z,2.65
2023-04-14T01:32:25.933Z,2.78
2023-04-14T01:34:58.058Z,3.00
2023-04-14T01:37:31.994Z,3.58
2023-04-14T01:40:02.699Z,2.85
2023-04-14T01:42:37.284Z,1.90
2023-04-14T01:45:24.467Z,2.08
2023-04-14T01:47:52.822Z,1.80
2023-04-14T01:50:21.449Z,1.83
2023-04-14T01:52:53.977Z,1.85
2023-04-14T01:55:24.203Z,1.75
2023-04-14T01:57:53.877Z,2.00
2023-04-14T02:00:21.861Z,1.50
2023-04-14T02:02:52.254Z,1.80
2023-04-14T02:05:21.208Z,1.58
2023-04-14T02:07:51.274Z,1.67
2023-04-14T02:10:21.472Z,1.83
2023-04-14T02:12:51.791Z,1.70
2023-04-14T02:15:21.192Z,1.75
2023-04-14T02:17:51.759Z,1.52
2023-04-14T02:20:21.367Z,1.60
2023-04-14T02:22:49.280Z,1.60
2023-04-14T02:25:16.879Z,1.60
2023-04-14T02:28:04.733Z,1.77
2023-04-14T02:30:38.576Z,1.83
2023-04-14T02:33:10.459Z,2.30
2023-04-14T02:38:15.406Z,2.10
2023-04-14T02:40:44.049Z,2.10
2023-04-14T02:43:19.288Z,2.30
2023-04-14T02:45:48.940Z,2.45
2023-04-14T02:48:17.906Z,2.63
2023-04-14T02:50:48.193Z,2.78
2023-04-14T02:53:21.821Z,2.17
2023-04-14T02:55:54.436Z,2.13
2023-04-14T02:58:22.184Z,1.90
2023-04-14T03:00:51.835Z,1.88
2023-04-14T03:03:19.733Z,1.85
2023-04-14T03:05:48.961Z,1.60
2023-04-14T03:08:16.970Z,1.85
2023-04-14T03:10:49.075Z,1.77
2023-04-14T03:13:19.994Z,2.08
2023-04-14T03:15:49.634Z,1.80
2023-04-14T03:18:18.882Z,1.95
2023-04-14T03:20:47.200Z,1.80
2023-04-14T03:23:18.831Z,2.05
2023-04-14T03:25:52.694Z,2.30
2023-04-14T03:28:28.449Z,1.95
2023-04-14T03:31:00.925Z,2.00
2023-04-14T03:33:34.516Z,2.00
2023-04-14T03:36:02.980Z,2.10
2023-04-14T03:38:32.516Z,2.20
2023-04-14T03:41:04.115Z,2.40
2023-04-14T03:43:33.359Z,2.60
2023-04-14T03:46:06.190Z,2.50
2023-04-14T03:48:35.256Z,2.80
2023-04-14T03:51:04.755Z,3.15
2023-04-14T03:53:34.818Z,3.33
2023-04-14T03:56:04.740Z,3.15
2023-04-14T03:58:33.623Z,3.20
2023-04-14T04:01:02.478Z,3.45
2023-04-14T04:03:30.951Z,3.90
2023-04-14T04:05:59.362Z,4.18
2023-04-14T04:08:27.281Z,3.78
2023-04-14T04:10:55.768Z,3.72
2023-04-14T04:13:24.626Z,4.45
2023-04-14T04:15:53.544Z,4.15
2023-04-14T04:18:23.370Z,4.40
2023-04-14T04:20:51.485Z,5.35
2023-04-14T04:23:20.900Z,4.55
2023-04-14T04:25:50.066Z,5.57
2023-04-14T04:28:25.611Z,4.95
2023-04-14T04:30:53.490Z,5.20
2023-04-14T04:33:22.090Z,5.82
2023-04-14T04:35:50.318Z,6.43
2023-04-14T04:38:18.071Z,5.95
2023-04-14T04:40:46.749Z,6.95
2023-04-14T04:43:20.776Z,7.60
2023-04-14T04:46:07.987Z,7.53
2023-04-14T04:48:36.140Z,7.55
2023-04-14T04:51:05.365Z,7.57
2023-04-14T04:53:32.961Z,7.72
2023-04-14T04:56:01.225Z,7.85
2023-04-14T04:58:28.844Z,7.72
2023-04-14T05:01:00.665Z,7.85
2023-04-14T05:06:31.449Z,7.78
2023-04-14T05:08:59.453Z,9.82
2023-04-14T05:11:27.563Z,8.65
2023-04-14T05:13:56.218Z,9.90
2023-04-14T05:16:24.614Z,8.85
2023-04-14T05:18:52.432Z,8.85
2023-04-14T05:21:20.095Z,9.27
2023-04-14T05:23:47.941Z,10.98
2023-04-14T05:31:14.878Z,8.75
2023-04-14T05:33:44.668Z,10.20
2023-04-14T05:36:12.286Z,9.18
2023-04-14T05:38:40.065Z,9.50
2023-04-14T05:41:08.588Z,10.13
2023-04-14T05:43:36.969Z,9.27
2023-04-14T05:46:05.021Z,10.63
2023-04-14T05:48:33.324Z,9.93
2023-04-14T05:51:01.308Z,9.63
2023-04-14T05:53:29.997Z,8.82
2023-04-14T05:55:57.649Z,8.60
2023-04-14T05:58:26.614Z,8.43
2023-04-14T06:00:54.364Z,9.30
2023-04-14T06:03:22.230Z,9.30
2023-04-14T06:05:50.717Z,10.15
2023-04-14T06:08:19.695Z,10.55
2023-04-14T06:10:47.346Z,10.05
2023-04-14T06:13:16.186Z,10.13
2023-04-14T06:15:43.903Z,9.50
2023-04-14T06:18:11.559Z,9.02
2023-04-14T06:20:39.713Z,8.90
2023-04-14T06:23:07.247Z,9.63
2023-04-14T06:25:34.874Z,9.57
2023-04-14T06:28:03.562Z,9.77
2023-04-14T06:30:34.495Z,10.10
2023-04-14T06:33:04.589Z,9.80
2023-04-14T06:35:33.903Z,8.73
2023-04-14T06:38:02.559Z,9.48
2023-04-14T06:40:30.495Z,9.25
2023-04-14T06:42:58.125Z,9.15
2023-04-14T06:45:26.114Z,8.23
2023-04-14T06:47:53.747Z,9.35
2023-04-14T06:50:21.375Z,8.20
2023-04-14T06:52:48.971Z,7.13
2023-04-14T06:55:16.880Z,7.70
2023-04-14T06:57:44.422Z,7.30
2023-04-14T07:00:12.326Z,7.07
2023-04-14T07:02:39.995Z,7.03
2023-04-14T07:05:08.019Z,7.30
2023-04-14T07:07:40.317Z,7.95
2023-04-14T07:10:08.063Z,7.40
2023-04-14T07:12:35.781Z,6.85
2023-04-14T07:15:03.653Z,6.35
2023-04-14T07:17:31.441Z,6.93
2023-04-14T07:19:59.067Z,6.75
2023-04-14T07:22:26.607Z,6.38
2023-04-14T07:24:54.236Z,6.55
2023-04-14T07:27:21.850Z,5.43
2023-04-14T07:29:49.501Z,5.40
2023-04-14T07:32:17.141Z,5.10
2023-04-14T07:34:44.793Z,5.13
2023-04-14T07:37:12.477Z,5.50
2023-04-14T07:39:40.770Z,5.63
2023-04-14T07:42:08.462Z,5.10
2023-04-14T07:44:36.256Z,4.95
2023-04-14T07:47:03.829Z,5.35
2023-04-14T07:49:31.763Z,5.78
2023-04-14T07:51:59.342Z,5.53
2023-04-14T07:54:27.007Z,5.40
2023-04-14T07:56:54.573Z,5.35
2023-04-14T07:59:22.352Z,6.10
2023-04-14T08:01:50.013Z,5.55
2023-04-14T08:04:17.734Z,5.57
2023-04-14T08:06:45.469Z,5.10
2023-04-14T08:09:14.636Z,5.07
2023-04-14T08:11:42.291Z,5.00
2023-04-14T08:14:12.029Z,5.07
2023-04-14T08:16:39.702Z,5.43
2023-04-14T08:19:07.643Z,5.53
2023-04-14T08:21:35.224Z,5.38
2023-04-14T08:24:02.796Z,4.72
2023-04-14T08:26:30.441Z,5.28
2023-04-14T08:28:58.274Z,5.43
2023-04-14T08:31:27.114Z,5.22
2023-04-14T08:33:54.798Z,6.30
2023-04-14T08:36:22.368Z,6.10
2023-04-14T08:38:50.894Z,5.47
2023-04-14T08:41:21.115Z,5.22
2023-04-14T08:43:48.772Z,5.13
2023-04-14T08:46:16.943Z,4.72
2023-04-14T08:48:47.605Z,5.50
2023-04-14T08:51:28.113Z,5.10
2023-04-14T08:53:57.767Z,4.93
2023-04-14T08:56:27.698Z,5.35
2023-04-14T08:58:55.479Z,5.35
2023-04-14T09:01:23.390Z,5.25
2023-04-14T09:03:51.330Z,4.47
2023-04-14T09:06:19.206Z,5.53
2023-04-14T09:08:46.829Z,5.47
2023-04-14T09:11:14.738Z,4.47
2023-04-14T09:13:45.434Z,5.03
2023-04-14T09:16:13.469Z,4.90
2023-04-14T09:18:41.454Z,4.57
2023-04-14T09:21:29.771Z,5.00
2023-04-14T09:23:57.528Z,5.15
2023-04-14T09:26:27.321Z,5.22
2023-04-14T09:28:54.878Z,5.13
2023-04-14T09:31:23.692Z,4.88
2023-04-14T09:33:51.868Z,4.95
2023-04-14T09:36:22.882Z,4.43
2023-04-14T09:38:51.547Z,4.00
2023-04-14T09:41:19.756Z,3.47
2023-04-14T09:43:47.876Z,3.92
2023-04-14T09:46:15.842Z,5.00
2023-04-14T09:48:56.289Z,4.75
2023-04-14T09:51:27.754Z,4.40
2023-04-14T09:53:55.689Z,4.07
2023-04-14T09:56:28.089Z,4.40
2023-04-14T09:59:02.901Z,4.22
2023-04-14T10:01:33.611Z,4.22
2023-04-14T10:04:02.616Z,4.47
2023-04-14T10:06:33.663Z,4.53
2023-04-14T10:09:02.113Z,4.47
2023-04-14T10:11:32.129Z,4.13
2023-04-14T10:14:06.589Z,4.65
2023-04-14T10:16:34.914Z,4.55
2023-04-14T10:19:03.714Z,4.78
2023-04-14T10:21:31.908Z,4.70
2023-04-14T10:23:59.478Z,4.25
2023-04-14T10:26:27.372Z,3.50
2023-04-14T10:28:55.977Z,3.00
2023-04-14T10:31:30.128Z,3.10
2023-04-14T10:34:16.150Z,3.45
2023-04-14T10:36:44.351Z,3.37
2023-04-14T10:39:12.799Z,2.60
2023-04-14T10:41:48.815Z,2.95
2023-04-14T10:44:26.340Z,2.55
2023-04-14T10:46:56.223Z,2.75
2023-04-14T10:49:25.489Z,2.90
2023-04-14T10:51:53.206Z,3.05
2023-04-14T10:54:21.046Z,3.20
2023-04-14T10:57:07.454Z,2.60
2023-04-14T10:59:35.189Z,3.35
2023-04-14T11:02:03.042Z,2.83
2023-04-14T11:04:30.848Z,2.83
2023-04-14T11:06:59.895Z,2.33
2023-04-14T11:09:32.998Z,2.33
2023-04-14T11:12:24.267Z,2.75
2023-04-14T11:14:56.536Z,2.57
2023-04-14T11:17:24.256Z,2.35
2023-04-14T11:19:55.327Z,3.13
2023-04-14T11:22:37.931Z,2.90
2023-04-14T11:25:05.703Z,3.13
2023-04-14T11:27:37.422Z,3.72
2023-04-14T11:30:06.983Z,2.63
2023-04-14T11:32:47.795Z,2.47
2023-04-14T11:35:16.423Z,2.65
2023-04-14T11:37:46.093Z,2.67
2023-04-14T11:40:14.727Z,2.90
2023-04-14T11:42:52.039Z,2.63
2023-04-14T11:45:19.678Z,2.60
2023-04-14T11:47:50.312Z,2.53
2023-04-14T11:50:17.974Z,2.50
2023-04-14T11:52:47.252Z,1.92
2023-04-14T11:55:15.533Z,1.80
2023-04-14T11:57:44.220Z,1.58
2023-04-14T12:00:15.020Z,2.10
2023-04-14T12:02:46.039Z,1.58
2023-04-14T12:05:19.036Z,1.98
2023-04-14T12:07:48.611Z,2.20
2023-04-14T12:10:16.761Z,1.70
2023-04-14T12:12:44.346Z,1.70
2023-04-14T12:15:13.355Z,1.80
2023-04-14T12:17:41.920Z,2.47
2023-04-14T12:20:16.329Z,2.35
2023-04-14T12:22:45.355Z,2.00
2023-04-14T12:25:13.288Z,1.65
2023-04-14T12:27:41.215Z,1.30
2023-04-14T12:30:09.855Z,1.60
2023-04-14T12:32:41.016Z,1.23
2023-04-14T12:35:08.892Z,0.95
2023-04-14T12:37:38.411Z,0.90
2023-04-14T12:40:06.916Z,1.08
2023-04-14T12:42:46.005Z,1.05
2023-04-14T12:45:14.212Z,1.40
2023-04-14T12:47:41.848Z,1.17
2023-04-14T12:50:28.964Z,1.27
2023-04-14T12:52:57.486Z,1.40
2023-04-14T12:55:27.377Z,1.42
2023-04-14T12:57:55.580Z,1.60
2023-04-14T13:00:23.984Z,1.60
2023-04-14T13:02:51.792Z,1.60
2023-04-14T13:05:20.295Z,1.83
2023-04-14T13:07:48.057Z,1.50
2023-04-14T13:10:15.928Z,0.90
2023-04-14T13:12:43.558Z,0.60
2023-04-14T13:15:27.893Z,0.77
2023-04-14T13:17:59.438Z,0.63
2023-04-14T13:20:27.194Z,0.30
2023-04-14T13:22:54.940Z,0.32
2023-04-14T13:25:22.564Z,0.45
2023-04-14T13:27:50.806Z,0.40
2023-04-14T13:30:19.947Z,0.52
2023-04-14T13:32:48.001Z,0.70
2023-04-14T13:35:15.955Z,0.60
2023-04-14T13:37:43.993Z,0.70
2023-04-14T13:40:11.630Z,0.60
2023-04-14T13:42:39.287Z,0.70
2023-04-14T13:45:07.236Z,0.75
2023-04-14T13:47:34.995Z,0.70
2023-04-14T13:50:03.401Z,0.70
2023-04-14T13:52:31.286Z,0.98
2023-04-14T13:54:58.894Z,0.70
2023-04-14T13:57:26.528Z,0.95
2023-04-14T13:59:54.205Z,0.95
2023-04-14T14:02:23.633Z,1.45
2023-04-14T14:04:51.357Z,1.10
2023-04-14T14:07:19.013Z,1.00
2023-04-14T14:09:46.909Z,0.95
2023-04-14T14:12:14.816Z,1.10
2023-04-14T14:14:42.412Z,1.50
2023-04-14T14:17:10.266Z,1.40
2023-04-14T14:19:38.309Z,1.40
2023-04-14T14:22:07.295Z,1.42
2023-04-14T14:24:34.962Z,1.30
2023-04-14T14:27:03.841Z,1.42
2023-04-14T14:29:31.835Z,1.52
2023-04-14T14:31:59.443Z,1.38
2023-04-14T14:34:26.997Z,1.17
2023-04-14T14:36:57.850Z,1.40
2023-04-14T14:39:26.084Z,1.25
2023-04-14T14:41:53.933Z,1.42
2023-04-14T14:44:21.587Z,1.17
2023-04-14T14:46:49.589Z,1.77
2023-04-14T14:49:17.436Z,1.42
2023-04-14T14:51:45.240Z,1.50
2023-04-14T14:54:12.917Z,1.52
2023-04-14T14:56:40.752Z,1.48
2023-04-14T14:59:11.498Z,1.50
2023-04-14T15:01:39.169Z,1.60
2023-04-14T15:04:07.502Z,1.75
2023-04-14T15:06:36.034Z,1.60
2023-04-14T15:09:05.433Z,1.65
2023-04-14T15:11:33.331Z,1.75
2023-04-14T15:14:01.334Z,1.65
2023-04-14T15:16:29.209Z,2.45
2023-04-14T15:18:57.513Z,2.10
2023-04-14T15:21:25.094Z,1.60
2023-04-14T15:23:52.796Z,1.73
2023-04-14T15:26:20.657Z,2.10
2023-04-14T15:28:48.264Z,2.00
2023-04-14T15:31:16.914Z,2.33
2023-04-14T15:33:45.459Z,1.95
2023-04-14T15:36:13.167Z,1.60
2023-04-14T15:38:41.685Z,1.60
2023-04-14T15:41:09.314Z,1.55
2023-04-14T15:43:36.902Z,1.38
2023-04-14T15:46:04.607Z,1.08
2023-04-14T15:48:32.213Z,1.20
2023-04-14T15:50:59.828Z,1.60
2023-04-14T15:53:27.405Z,1.90
2023-04-14T15:55:55.095Z,1.20
2023-04-14T15:58:22.772Z,1.30
2023-04-14T16:00:50.507Z,1.98
2023-04-14T16:03:19.360Z,1.95
2023-04-14T16:05:47.175Z,1.90
2023-04-14T16:08:14.787Z,1.63
2023-04-14T16:10:42.668Z,1.80
2023-04-14T16:13:10.950Z,1.50
2023-04-14T16:15:38.647Z,1.67
2023-04-14T16:18:06.204Z,1.85
2023-04-14T16:20:34.100Z,1.73
2023-04-14T16:23:01.728Z,1.90
2023-04-14T16:25:29.662Z,1.90
2023-04-14T16:27:58.351Z,1.35
2023-04-14T16:30:25.961Z,2.22
2023-04-14T16:32:53.604Z,1.73
2023-04-14T16:35:21.250Z,2.05
2023-04-14T16:37:49.067Z,3.42
2023-04-14T16:40:16.656Z,3.28
2023-04-14T16:42:44.297Z,2.80
2023-04-14T16:45:11.960Z,3.90
2023-04-14T16:47:39.554Z,3.13
2023-04-14T16:50:07.687Z,3.30
2023-04-14T16:52:35.612Z,3.83
2023-04-14T16:55:03.256Z,2.92
2023-04-14T16:57:31.326Z,2.50
2023-04-14T16:59:58.830Z,3.15
2023-04-14T17:02:26.560Z,2.72
2023-04-14T17:04:54.494Z,2.80
2023-04-14T17:07:22.233Z,2.92
2023-04-14T17:09:49.783Z,3.08
2023-04-14T17:12:17.592Z,2.97
2023-04-14T17:14:45.146Z,3.00
2023-04-14T17:17:12.881Z,3.17
2023-04-14T17:19:40.608Z,3.00
2023-04-14T17:22:08.582Z,2.88
2023-04-14T17:24:36.524Z,2.92
2023-04-14T17:27:04.115Z,2.63
2023-04-14T17:29:31.771Z,2.72
2023-04-14T17:31:59.540Z,2.97
2023-04-14T17:34:29.260Z,3.13
2023-04-14T17:36:57.287Z,3.47
2023-04-14T17:39:27.117Z,3.00
2023-04-14T17:41:55.983Z,3.97
2023-04-14T17:44:31.748Z,2.88
2023-04-14T17:47:04.750Z,3.30
2023-04-14T17:49:34.014Z,2.30
2023-04-14T17:52:16.444Z,1.90
2023-04-14T17:54:44.805Z,2.25
2023-04-14T17:57:13.131Z,2.13
2023-04-14T17:59:42.108Z,2.20
2023-04-14T18:02:10.182Z,2.00
2023-04-14T18:04:38.207Z,2.72
2023-04-14T18:07:06.611Z,2.38
2023-04-14T18:09:41.065Z,2.58
2023-04-14T18:12:08.729Z,2.25
2023-04-14T18:14:36.724Z,2.60
2023-04-14T18:17:04.899Z,2.35
2023-04-14T18:19:33.255Z,2.33
2023-04-14T18:22:01.161Z,12.88
2023-04-14T18:28:02.893Z,2.10
2023-04-14T18:29:49.837Z,2.28
2023-04-14T18:32:17.467Z,2.33
2023-04-14T18:34:45.063Z,2.05
2023-04-14T18:37:12.754Z,2.50
2023-04-14T18:39:40.409Z,2.40
2023-04-14T18:42:08.116Z,2.13
2023-04-14T18:44:35.741Z,2.10
2023-04-14T18:47:03.465Z,2.17
2023-04-14T18:49:31.071Z,1.90
2023-04-14T18:51:58.733Z,2.22
2023-04-14T18:54:26.385Z,2.03
2023-04-14T18:56:54.201Z,2.50
2023-04-14T18:59:22.701Z,2.60
2023-04-14T19:01:50.937Z,3.10
2023-04-14T19:04:18.811Z,3.28
2023-04-14T19:06:49.062Z,3.05
2023-04-14T19:09:16.634Z,3.15
2023-04-14T19:11:45.955Z,2.90
2023-04-14T19:14:13.549Z,3.08
2023-04-14T19:16:41.248Z,2.75
2023-04-14T19:19:08.915Z,2.35
2023-04-14T19:21:36.550Z,2.38
2023-04-14T19:24:04.273Z,2.20
2023-04-14T19:26:34.138Z,2.28
2023-04-14T19:29:02.200Z,2.63
2023-04-14T19:31:30.169Z,2.50
2023-04-14T19:33:58.585Z,2.47
2023-04-14T19:36:32.287Z,2.42
2023-04-14T19:39:00.346Z,2.50
2023-04-14T19:41:30.340Z,2.92
2023-04-14T19:43:57.877Z,3.13
2023-04-14T19:46:29.452Z,2.80
2023-04-14T19:48:57.161Z,3.08
2023-04-14T19:51:27.375Z,3.03
2023-04-14T19:53:55.049Z,3.13
2023-04-14T19:56:22.676Z,3.08
2023-04-14T19:58:51.625Z,3.20
2023-04-14T20:01:20.567Z,2.90
2023-04-14T20:04:07.514Z,3.08
2023-04-14T20:07:01.557Z,3.10
2023-04-14T20:09:29.255Z,3.17
2023-04-14T20:11:56.824Z,3.03
2023-04-14T20:14:27.912Z,2.88
2023-04-14T20:16:56.361Z,2.90
2023-04-14T20:19:25.252Z,2.75
2023-04-14T20:21:52.819Z,2.80
2023-04-14T20:24:20.536Z,3.50
2023-04-14T20:26:48.211Z,3.25
2023-04-14T20:29:17.356Z,3.30
2023-04-14T20:31:45.067Z,3.25
2023-04-14T20:34:13.510Z,3.67
2023-04-14T20:36:41.628Z,3.72
2023-04-14T20:39:09.275Z,3.10
2023-04-14T20:41:37.509Z,3.65
2023-04-14T20:44:06.235Z,3.65
2023-04-14T20:46:34.469Z,3.38
2023-04-14T20:49:02.702Z,3.88
2023-04-14T20:51:32.216Z,3.67
2023-04-14T20:54:01.103Z,3.40
2023-04-14T20:56:30.675Z,3.33
2023-04-14T20:59:05.265Z,3.30
2023-04-14T21:01:33.105Z,3.13
2023-04-14T21:04:00.890Z,3.50
2023-04-14T21:06:31.145Z,3.33
2023-04-14T21:09:01.674Z,3.40
2023-04-14T21:12:15.672Z,4.00
2023-04-14T21:15:42.378Z,3.85
2023-04-14T21:17:32.325Z,3.67
2023-04-14T21:20:00.241Z,4.20
2023-04-14T21:22:32.384Z,4.97
2023-04-14T21:25:00.348Z,4.60
2023-04-14T21:27:28.469Z,4.50
2023-04-14T21:29:56.234Z,4.18
2023-04-14T21:32:24.780Z,4.28
2023-04-14T21:34:59.824Z,3.90
2023-04-14T21:37:27.430Z,4.13
2023-04-14T21:39:56.068Z,3.85
2023-04-14T21:42:32.900Z,3.90
2023-04-14T21:45:00.924Z,3.50
2023-04-14T21:47:28.633Z,3.78
2023-04-14T21:49:56.363Z,3.92
2023-04-14T21:52:24.864Z,3.60
2023-04-14T21:54:52.423Z,3.80
2023-04-14T21:57:43.900Z,3.00
2023-04-14T22:00:13.016Z,3.38
2023-04-14T22:02:42.925Z,3.25
2023-04-14T22:05:11.323Z,2.72
2023-04-14T22:07:45.541Z,3.10
2023-04-14T22:10:13.089Z,2.63
2023-04-14T22:12:42.281Z,2.90
2023-04-14T22:15:10.541Z,2.85
2023-04-14T22:17:39.014Z,2.88
2023-04-14T22:20:06.995Z,2.65
2023-04-14T22:22:36.853Z,2.90
2023-04-14T22:25:05.141Z,3.03
2023-04-14T22:27:34.414Z,3.05
2023-04-14T22:30:02.650Z,2.70
2023-04-14T22:32:30.696Z,2.42
2023-04-14T22:35:00.398Z,2.60
2023-04-14T22:37:27.965Z,2.45
2023-04-14T22:39:55.755Z,2.33
2023-04-14T22:42:52.866Z,2.97
2023-04-14T22:45:20.551Z,2.67
2023-04-14T22:47:48.320Z,2.67
2023-04-14T22:50:18.594Z,2.80
2023-04-14T22:52:46.689Z,2.80
2023-04-14T22:55:14.409Z,3.00
2023-04-14T22:57:43.269Z,2.80
2023-04-14T23:00:11.551Z,2.65
2023-04-14T23:02:42.044Z,2.47
2023-04-14T23:05:10.746Z,2.90
2023-04-14T23:07:38.433Z,2.60
2023-04-14T23:10:06.352Z,2.58
2023-04-14T23:12:39.998Z,2.83
2023-04-14T23:15:08.583Z,3.10
2023-04-14T23:17:36.623Z,2.53
2023-04-14T23:20:09.943Z,2.53
2023-04-14T23:22:37.575Z,2.80
2023-04-14T23:25:05.338Z,2.90
2023-04-14T23:27:40.764Z,2.88
2023-04-14T23:30:09.689Z,3.00
2023-04-14T23:32:37.407Z,2.95
2023-04-14T23:35:05.599Z,2.55
2023-04-14T23:37:33.538Z,2.80
2023-04-14T23:40:01.205Z,2.78
2023-04-14T23:43:00.589Z,2.60
2023-04-14T23:45:28.619Z,2.75
2023-04-14T23:47:57.620Z,3.15
2023-04-14T23:50:58.952Z,2.90
2023-04-14T23:53:13.903Z,3.13
2023-04-14T23:55:42.268Z,2.95
2023-04-14T23:58:11.125Z,3.20
